Time;durP1;ratioP1;P1;durP2;ratioP2;P2;SDS_P1;SDS_P2;PMS_P1;PMS_P2;Temp;Humidity;BMP_temperature;BMP_pressure;BME280_temperature;BME280_humidity;BME280_pressure;Samples;Min_cycle;Max_cycle;Signal;HPM_P1;HPM_P2
2021/12/18 00:01:40;;;;;;;2.57;1.87;;;7.00;99.90;;;;;;5096828;27;20226;-46
2021/12/18 00:04:08;;;;;;;2.00;1.73;;;7.00;99.90;;;;;;5102119;28;20197;-45
2021/12/18 00:06:35;;;;;;;2.40;1.57;;;7.00;99.90;;;;;;5102354;28;20205;-44
2021/12/18 00:09:01;;;;;;;1.83;1.70;;;7.00;99.90;;;;;;5093861;27;20568;-44
2021/12/18 00:11:29;;;;;;;3.13;1.90;;;7.00;99.90;;;;;;5101541;28;20217;-44
2021/12/18 00:13:57;;;;;;;2.27;2.07;;;7.00;99.90;;;;;;5106389;28;20654;-45
2021/12/18 00:16:24;;;;;;;4.07;2.20;;;7.00;99.90;;;;;;5104358;28;20217;-47
2021/12/18 00:18:52;;;;;;;2.23;1.80;;;7.00;99.90;;;;;;5096906;28;20193;-45
2021/12/18 00:21:21;;;;;;;3.20;2.47;;;7.00;99.90;;;;;;5105276;28;20217;-47
2021/12/18 00:23:47;;;;;;;3.37;2.17;;;7.00;99.90;;;;;;5091691;27;23961;-44
2021/12/18 00:26:14;;;;;;;3.60;2.40;;;7.00;99.90;;;;;;5105981;28;20208;-44
2021/12/18 00:28:41;;;;;;;2.80;2.27;;;7.00;99.90;;;;;;5102998;27;20208;-47
2021/12/18 00:31:09;;;;;;;2.80;2.50;;;7.00;99.90;;;;;;5106677;28;20227;-45
2021/12/18 00:33:35;;;;;;;3.20;2.40;;;7.00;99.90;;;;;;5096052;27;20193;-46
2021/12/18 00:36:02;;;;;;;3.67;2.47;;;7.00;99.90;;;;;;5106434;28;20593;-45
2021/12/18 00:38:30;;;;;;;2.30;2.10;;;7.00;99.90;;;;;;5103456;28;20212;-45
2021/12/18 00:41:12;;;;;;;3.20;2.40;;;7.00;99.90;;;;;;5088666;27;20245;-46
2021/12/18 00:44:01;;;;;;;2.60;2.37;;;6.90;99.90;;;;;;5102276;28;20204;-48
2021/12/18 00:46:29;;;;;;;2.83;2.27;;;7.00;99.90;;;;;;5102816;28;20735;-49
2021/12/18 00:48:56;;;;;;;3.00;2.60;;;7.00;99.90;;;;;;5095012;27;20225;-44
2021/12/18 00:51:23;;;;;;;3.40;2.73;;;7.00;99.90;;;;;;5104438;28;20225;-48
2021/12/18 00:53:49;;;;;;;4.10;2.47;;;7.00;99.90;;;;;;5104416;28;20192;-46
2021/12/18 00:56:16;;;;;;;3.13;2.40;;;7.00;99.90;;;;;;5091826;27;20228;-46
2021/12/18 00:58:43;;;;;;;3.43;2.87;;;7.00;99.90;;;;;;5102789;28;20247;-44
2021/12/18 01:01:11;;;;;;;3.23;2.30;;;7.00;99.90;;;;;;5106389;28;20692;-47
2021/12/18 01:03:42;;;;;;;2.80;2.37;;;7.00;99.90;;;;;;5095495;27;20272;-46
2021/12/18 01:06:08;;;;;;;5.43;2.80;;;7.00;99.90;;;;;;5105455;28;20189;-44
2021/12/18 01:08:35;;;;;;;5.70;3.23;;;7.00;99.90;;;;;;5101642;28;20189;-44
2021/12/18 01:13:59;;;;;;;4.40;3.20;;;7.10;99.90;;;;;;5099954;28;20952;-44
2021/12/18 01:16:36;;;;;;;3.80;3.23;;;7.10;99.90;;;;;;5102837;28;20581;-45
2021/12/18 01:24:44;;;;;;;3.13;2.70;;;7.00;99.90;;;;;;5089270;27;20402;-48
2021/12/18 01:27:11;;;;;;;3.63;2.50;;;7.00;99.90;;;;;;5105142;28;20665;-44
2021/12/18 01:29:37;;;;;;;4.53;2.50;;;7.00;99.90;;;;;;5101343;28;20189;-47
2021/12/18 01:32:05;;;;;;;5.53;2.60;;;7.00;99.90;;;;;;5105593;28;20197;-44
2021/12/18 01:34:33;;;;;;;3.70;2.10;;;7.10;99.90;;;;;;5095500;27;20205;-44
2021/12/18 01:37:00;;;;;;;2.37;1.83;;;7.10;99.90;;;;;;5103226;28;20236;-45
2021/12/18 01:39:26;;;;;;;2.87;2.30;;;7.10;99.90;;;;;;5102618;28;20747;-46
2021/12/18 01:42:10;;;;;;;2.60;2.00;;;7.10;99.90;;;;;;5090421;27;20217;-44
2021/12/18 01:45:01;;;;;;;3.17;2.30;;;7.10;99.90;;;;;;5101317;28;20874;-46
2021/12/18 01:52:58;;;;;;;4.80;3.53;;;7.10;99.90;;;;;;5104953;27;20206;-44
2021/12/18 01:55:28;;;;;;;4.80;3.63;;;7.10;99.90;;;;;;5094142;27;20217;-45
2021/12/18 01:57:55;;;;;;;6.20;3.27;;;7.10;99.90;;;;;;5101798;28;20288;-44
2021/12/18 02:00:23;;;;;;;5.37;3.40;;;7.20;99.90;;;;;;5103141;28;20228;-45
2021/12/18 02:02:50;;;;;;;5.57;3.97;;;7.20;99.90;;;;;;5103405;28;20200;-44
2021/12/18 02:05:18;;;;;;;7.50;4.23;;;7.10;99.90;;;;;;5103565;28;20200;-46
2021/12/18 02:07:45;;;;;;;6.23;4.47;;;7.20;99.90;;;;;;5094988;28;20189;-44
2021/12/18 02:10:18;;;;;;;6.83;4.13;;;7.20;99.90;;;;;;5104739;28;20225;-45
2021/12/18 02:12:52;;;;;;;4.90;3.60;;;7.20;99.90;;;;;;5088363;27;21037;-45
2021/12/18 02:20:59;;;;;;;6.97;4.13;;;7.10;99.90;;;;;;5092367;27;20237;-46
2021/12/18 02:23:26;;;;;;;6.47;3.77;;;7.10;99.90;;;;;;5101767;28;20268;-45
2021/12/18 02:25:53;;;;;;;8.80;5.00;;;7.10;99.90;;;;;;5103135;28;20681;-45
2021/12/18 02:28:23;;;;;;;7.07;3.97;;;7.10;99.90;;;;;;5089749;27;20213;-45
2021/12/18 02:30:53;;;;;;;9.63;4.37;;;7.10;99.90;;;;;;5098615;28;20213;-44
2021/12/18 02:33:21;;;;;;;7.57;4.00;;;7.10;99.90;;;;;;5102759;28;20201;-44
2021/12/18 02:35:49;;;;;;;8.43;4.63;;;7.10;99.90;;;;;;5101800;28;20242;-44
2021/12/18 02:38:23;;;;;;;8.43;4.83;;;7.20;99.90;;;;;;5093034;27;20258;-46
2021/12/18 02:41:07;;;;;;;11.17;4.97;;;7.10;99.90;;;;;;5102585;28;20209;-43
2021/12/18 02:43:35;;;;;;;8.90;5.23;;;7.20;99.90;;;;;;5086699;27;20323;-46
2021/12/18 02:46:06;;;;;;;9.00;5.60;;;7.20;99.90;;;;;;5103538;28;20209;-44
2021/12/18 02:48:35;;;;;;;15.13;6.67;;;7.10;99.90;;;;;;5098887;28;20205;-44
2021/12/18 02:51:03;;;;;;;12.33;5.80;;;7.20;99.90;;;;;;5097526;28;20221;-46
2021/12/18 02:53:31;;;;;;;10.30;5.43;;;7.20;99.90;;;;;;5090080;28;20200;-44
2021/12/18 02:56:00;;;;;;;12.77;5.73;;;7.20;99.90;;;;;;5097373;28;20221;-44
2021/12/18 02:58:27;;;;;;;9.87;5.40;;;7.20;99.90;;;;;;5094775;28;20204;-46
2021/12/18 03:00:56;;;;;;;10.47;5.27;;;7.20;99.90;;;;;;5089538;27;20229;-49
2021/12/18 03:03:25;;;;;;;11.10;5.70;;;7.20;99.90;;;;;;5095052;28;20649;-44
2021/12/18 03:06:05;;;;;;;10.57;5.90;;;7.20;99.90;;;;;;5102395;28;20242;-45
2021/12/18 03:08:42;;;;;;;11.70;6.10;;;7.20;99.90;;;;;;5093959;28;20204;-46
2021/12/18 03:20:18;;;;;;;10.63;5.43;;;7.20;99.90;;;;;;5098690;28;20618;-46
2021/12/18 03:25:12;;;;;;;14.83;6.70;;;7.20;99.90;;;;;;5100285;28;20287;-44
2021/12/18 03:27:40;;;;;;;10.90;5.80;;;7.20;99.90;;;;;;5102873;28;20210;-48
2021/12/18 03:30:08;;;;;;;15.17;6.00;;;7.20;99.90;;;;;;5107787;28;20243;-44
2021/12/18 03:32:34;;;;;;;10.20;6.63;;;7.30;99.90;;;;;;5089938;27;20205;-44
2021/12/18 03:35:02;;;;;;;10.43;6.67;;;7.20;99.90;;;;;;5107069;28;20212;-44
2021/12/18 03:37:28;;;;;;;10.93;6.80;;;7.30;99.90;;;;;;5100400;27;20193;-47
2021/12/18 03:39:55;;;;;;;10.07;6.50;;;7.30;99.90;;;;;;5104166;28;20213;-49
2021/12/18 03:42:23;;;;;;;10.40;6.00;;;7.20;99.90;;;;;;5105860;28;20205;-45
2021/12/18 03:44:50;;;;;;;13.47;6.90;;;7.30;99.90;;;;;;5106071;28;20189;-46
2021/12/18 03:47:17;;;;;;;8.80;5.90;;;7.30;99.90;;;;;;5093011;27;20561;-44
2021/12/18 03:49:44;;;;;;;9.67;6.17;;;7.30;99.90;;;;;;5104496;28;20551;-45
2021/12/18 03:52:11;;;;;;;10.77;6.27;;;7.30;99.90;;;;;;5107444;27;20205;-44
2021/12/18 03:54:37;;;;;;;9.83;5.33;;;7.30;99.90;;;;;;5092829;27;20215;-44
2021/12/18 03:57:05;;;;;;;7.83;6.07;;;7.30;99.90;;;;;;5107675;27;20224;-45
2021/12/18 03:59:33;;;;;;;9.40;5.60;;;7.30;99.90;;;;;;5105776;27;20197;-45
2021/12/18 04:01:59;;;;;;;7.60;5.27;;;7.30;99.90;;;;;;5093594;27;20222;-49
2021/12/18 04:04:26;;;;;;;8.23;5.97;;;7.30;99.90;;;;;;5104285;28;20197;-45
2021/12/18 04:06:53;;;;;;;9.30;5.33;;;7.30;99.90;;;;;;5106130;28;20288;-45
2021/12/18 04:09:20;;;;;;;8.90;5.77;;;7.30;99.90;;;;;;5104455;28;20572;-46
2021/12/18 04:11:47;;;;;;;9.83;6.03;;;7.30;99.90;;;;;;5099834;27;20346;-47
2021/12/18 04:14:17;;;;;;;8.70;5.47;;;7.30;99.90;;;;;;5089799;27;20217;-45
2021/12/18 04:16:45;;;;;;;9.00;5.53;;;7.40;99.90;;;;;;5106820;28;20227;-44
2021/12/18 04:19:12;;;;;;;7.90;5.30;;;7.40;99.90;;;;;;5090382;27;20213;-47
2021/12/18 04:21:39;;;;;;;9.07;6.07;;;7.40;99.90;;;;;;5106405;28;20224;-44
2021/12/18 04:24:06;;;;;;;10.17;6.00;;;7.40;99.90;;;;;;5105064;28;20198;-46
2021/12/18 04:26:34;;;;;;;10.73;5.90;;;7.40;99.90;;;;;;5099161;27;20942;-44
2021/12/18 04:29:01;;;;;;;11.50;6.40;;;7.40;99.90;;;;;;5105600;28;20210;-46
2021/12/18 04:31:28;;;;;;;10.10;6.07;;;7.40;99.90;;;;;;5104239;28;20224;-44
2021/12/18 04:33:56;;;;;;;9.40;5.50;;;7.40;99.90;;;;;;5092973;27;20201;-44
2021/12/18 04:36:23;;;;;;;10.13;5.67;;;7.40;99.90;;;;;;5102624;28;20216;-44
2021/12/18 04:38:50;;;;;;;7.63;5.13;;;7.40;99.90;;;;;;5105781;28;20201;-44
2021/12/18 04:41:22;;;;;;;7.37;4.80;;;7.40;99.90;;;;;;5092099;28;20220;-45
2021/12/18 04:43:49;;;;;;;7.40;4.93;;;7.40;99.90;;;;;;5106722;28;20204;-44
2021/12/18 04:46:16;;;;;;;7.10;5.57;;;7.40;99.90;;;;;;5102162;28;20204;-45
2021/12/18 04:48:42;;;;;;;6.00;4.20;;;7.40;99.90;;;;;;5106069;28;20207;-45
2021/12/18 04:51:10;;;;;;;6.30;5.30;;;7.40;99.90;;;;;;5094664;27;20213;-44
2021/12/18 04:53:37;;;;;;;8.93;6.20;;;7.40;99.90;;;;;;5105472;28;20200;-44
2021/12/18 04:56:04;;;;;;;11.03;6.30;;;7.40;99.90;;;;;;5102588;28;20209;-47
2021/12/18 04:58:31;;;;;;;9.30;6.30;;;7.40;99.90;;;;;;5099590;27;20204;-43
2021/12/18 05:00:57;;;;;;;8.03;5.93;;;7.40;99.90;;;;;;5105905;28;20306;-44
2021/12/18 05:03:24;;;;;;;9.60;6.30;;;7.40;99.90;;;;;;5102320;28;20198;-44
2021/12/18 05:05:51;;;;;;;7.50;5.30;;;7.40;99.90;;;;;;5092758;27;20209;-48
2021/12/18 05:08:19;;;;;;;4.50;3.30;;;7.40;99.90;;;;;;5101843;28;20263;-44
2021/12/18 05:10:45;;;;;;;4.17;3.53;;;7.40;99.90;;;;;;5105913;28;20264;-45
2021/12/18 05:13:12;;;;;;;3.13;2.70;;;7.40;99.90;;;;;;5092690;28;20216;-45
2021/12/18 05:15:39;;;;;;;2.47;2.13;;;7.40;99.90;;;;;;5102745;28;20236;-44
2021/12/18 05:18:05;;;;;;;3.60;2.67;;;7.30;99.90;;;;;;5103323;28;20458;-47
2021/12/18 05:20:32;;;;;;;3.17;2.80;;;7.40;99.90;;;;;;5091159;27;21345;-44
2021/12/18 05:22:59;;;;;;;3.60;3.10;;;7.30;99.90;;;;;;5104615;28;20220;-46
2021/12/18 05:25:27;;;;;;;5.53;3.23;;;7.30;99.90;;;;;;5102674;27;20205;-43
2021/12/18 05:27:53;;;;;;;5.43;4.37;;;7.30;99.90;;;;;;5097861;28;20201;-45
2021/12/18 05:30:20;;;;;;;7.53;5.07;;;7.30;99.90;;;;;;5101399;28;20240;-44
2021/12/18 05:32:47;;;;;;;8.07;5.73;;;7.30;99.90;;;;;;5105702;27;20282;-44
2021/12/18 05:35:16;;;;;;;9.80;6.47;;;7.30;99.90;;;;;;5088132;27;20212;-48
2021/12/18 05:37:48;;;;;;;9.70;6.47;;;7.30;99.90;;;;;;5101641;28;20252;-47
2021/12/18 05:40:17;;;;;;;12.07;7.53;;;7.30;99.90;;;;;;5098898;28;20236;-44
2021/12/18 05:42:46;;;;;;;10.17;8.10;;;7.30;99.90;;;;;;5105514;28;20200;-45
2021/12/18 05:45:13;;;;;;;10.13;7.93;;;7.30;99.90;;;;;;5090765;28;20658;-44
2021/12/18 05:47:40;;;;;;;11.30;8.90;;;7.30;99.90;;;;;;5105030;28;20190;-47
2021/12/18 05:50:08;;;;;;;10.00;8.53;;;7.30;99.90;;;;;;5101535;28;20224;-45
2021/12/18 05:52:35;;;;;;;6.20;5.43;;;7.30;99.90;;;;;;5090812;28;20197;-46
2021/12/18 05:55:01;;;;;;;8.23;6.93;;;7.20;99.90;;;;;;5103727;27;20208;-48
2021/12/18 05:57:28;;;;;;;7.63;6.43;;;7.20;99.90;;;;;;5102043;28;20932;-44
2021/12/18 05:59:56;;;;;;;9.63;7.67;;;7.20;99.90;;;;;;5096050;27;20225;-48
2021/12/18 06:02:23;;;;;;;10.23;6.83;;;7.20;99.90;;;;;;5099055;27;20216;-44
2021/12/18 06:04:50;;;;;;;8.07;6.77;;;7.20;99.90;;;;;;5104581;28;20193;-46
2021/12/18 06:07:28;;;;;;;6.20;5.60;;;7.20;99.90;;;;;;5087297;27;20211;-45
2021/12/18 06:09:55;;;;;;;7.80;6.43;;;7.20;99.90;;;;;;5104540;28;20231;-45
2021/12/18 06:12:22;;;;;;;5.27;4.77;;;7.10;99.90;;;;;;5100975;28;20203;-43
2021/12/18 06:14:50;;;;;;;6.00;5.40;;;7.10;99.90;;;;;;5098237;27;20201;-44
2021/12/18 06:17:18;;;;;;;6.20;5.60;;;7.10;99.90;;;;;;5100184;28;20213;-45
2021/12/18 06:19:44;;;;;;;5.40;4.90;;;7.20;99.90;;;;;;5096441;28;20236;-49
2021/12/18 06:22:11;;;;;;;5.20;4.80;;;7.10;99.90;;;;;;5078839;27;20712;-46
2021/12/18 06:24:38;;;;;;;5.13;4.40;;;7.10;99.90;;;;;;5089984;28;20212;-45
2021/12/18 06:27:05;;;;;;;6.00;5.07;;;7.10;99.90;;;;;;5089287;28;20197;-47
2021/12/18 06:29:33;;;;;;;5.30;4.87;;;7.10;99.90;;;;;;5087377;28;20655;-44
2021/12/18 06:32:01;;;;;;;5.73;5.23;;;7.20;99.90;;;;;;5100967;28;20201;-45
2021/12/18 06:34:29;;;;;;;5.00;4.60;;;7.20;99.90;;;;;;5099575;28;20201;-44
2021/12/18 06:36:55;;;;;;;6.13;5.57;;;7.20;99.90;;;;;;5102530;28;20220;-44
2021/12/18 06:39:22;;;;;;;9.47;6.57;;;7.20;99.90;;;;;;5086537;27;20197;-44
2021/12/18 06:41:49;;;;;;;6.53;5.67;;;7.20;99.90;;;;;;5091653;27;20205;-46
2021/12/18 06:44:16;;;;;;;6.10;5.50;;;7.10;99.90;;;;;;5090709;28;20899;-45
2021/12/18 06:46:43;;;;;;;7.97;6.03;;;7.20;99.90;;;;;;5100010;28;20201;-50
2021/12/18 06:49:10;;;;;;;6.17;5.57;;;7.20;99.90;;;;;;5097726;28;20193;-47
2021/12/18 06:51:39;;;;;;;5.07;4.57;;;7.20;99.90;;;;;;5101414;28;20217;-44
2021/12/18 06:54:06;;;;;;;6.87;5.57;;;7.20;99.90;;;;;;5086765;28;20205;-45
2021/12/18 06:56:33;;;;;;;6.50;5.77;;;7.20;99.90;;;;;;5084214;27;20229;-47
2021/12/18 06:59:00;;;;;;;6.23;5.63;;;7.20;99.90;;;;;;5100980;28;20250;-44
2021/12/18 07:01:26;;;;;;;6.20;5.70;;;7.20;99.90;;;;;;5086270;27;20221;-47
2021/12/18 07:03:53;;;;;;;4.60;4.23;;;7.20;99.90;;;;;;5097212;28;20200;-47
2021/12/18 07:06:20;;;;;;;4.17;3.77;;;7.10;99.90;;;;;;5096843;28;20189;-50
2021/12/18 07:08:48;;;;;;;4.13;3.73;;;7.10;99.90;;;;;;5087077;28;20206;-49
2021/12/18 07:11:15;;;;;;;3.83;3.53;;;7.10;99.90;;;;;;5083768;28;20233;-47
2021/12/18 07:13:43;;;;;;;4.53;4.17;;;7.10;99.90;;;;;;5087135;28;20213;-47
2021/12/18 07:16:09;;;;;;;4.57;4.17;;;7.20;99.90;;;;;;5079681;28;20197;-46
2021/12/18 07:18:36;;;;;;;6.07;5.47;;;7.20;99.90;;;;;;5097597;28;20221;-50
2021/12/18 07:21:03;;;;;;;5.43;4.83;;;7.20;99.90;;;;;;5093524;28;20209;-46
2021/12/18 07:23:30;;;;;;;5.63;4.80;;;7.20;99.90;;;;;;5092106;28;20197;-47
2021/12/18 07:25:58;;;;;;;5.57;4.87;;;7.20;99.90;;;;;;5083805;27;20198;-44
2021/12/18 07:28:25;;;;;;;4.70;4.23;;;7.20;99.90;;;;;;5093571;28;20217;-44
2021/12/18 07:30:51;;;;;;;6.03;4.60;;;7.20;99.90;;;;;;5087583;28;20266;-46
2021/12/18 07:33:18;;;;;;;6.87;5.27;;;7.20;99.90;;;;;;5091528;28;20212;-48
2021/12/18 07:35:45;;;;;;;8.47;6.23;;;7.20;99.90;;;;;;5084784;28;20205;-44
2021/12/18 07:38:12;;;;;;;7.17;5.50;;;7.20;99.90;;;;;;5099395;28;20224;-45
2021/12/18 07:40:39;;;;;;;7.40;5.80;;;7.10;99.90;;;;;;5086184;28;20701;-44
2021/12/18 07:43:07;;;;;;;7.30;5.23;;;7.20;99.90;;;;;;5088727;28;20209;-44
2021/12/18 07:45:34;;;;;;;6.83;5.87;;;7.20;99.90;;;;;;5091841;28;20193;-45
2021/12/18 07:48:01;;;;;;;9.13;6.80;;;7.20;99.90;;;;;;5093421;28;20226;-44
2021/12/18 07:50:28;;;;;;;7.20;6.50;;;7.20;99.90;;;;;;5091962;28;20225;-44
2021/12/18 07:52:54;;;;;;;9.00;6.53;;;7.20;99.90;;;;;;5094068;28;20961;-44
2021/12/18 07:55:21;;;;;;;7.63;5.97;;;7.20;99.90;;;;;;5086756;28;20213;-44
2021/12/18 07:57:50;;;;;;;9.27;7.43;;;7.20;99.90;;;;;;5078579;28;20230;-48
2021/12/18 08:00:19;;;;;;;8.77;7.57;;;7.20;99.90;;;;;;5091215;28;20304;-44
2021/12/18 08:02:46;;;;;;;9.00;6.50;;;7.20;99.90;;;;;;5080971;28;20201;-45
2021/12/18 08:05:14;;;;;;;10.50;6.30;;;7.10;99.90;;;;;;5093470;28;20671;-45
2021/12/18 08:07:41;;;;;;;8.87;5.13;;;7.20;99.90;;;;;;5096724;28;20207;-47
2021/12/18 08:10:08;;;;;;;8.80;5.47;;;7.20;99.90;;;;;;5098196;28;20213;-47
2021/12/18 08:12:35;;;;;;;9.27;5.63;;;7.20;99.90;;;;;;5081100;28;20205;-46
2021/12/18 08:15:02;;;;;;;9.00;5.30;;;7.20;99.90;;;;;;5093150;27;20193;-45
2021/12/18 08:17:30;;;;;;;9.47;4.87;;;7.20;99.90;;;;;;5096848;27;20220;-46
2021/12/18 08:19:57;;;;;;;9.30;6.30;;;7.10;99.90;;;;;;5092114;28;20205;-48
2021/12/18 08:22:23;;;;;;;10.30;6.60;;;7.10;99.90;;;;;;5103439;28;20205;-46
2021/12/18 08:24:50;;;;;;;8.63;6.70;;;7.10;99.90;;;;;;5101157;28;20201;-45
2021/12/18 08:27:17;;;;;;;9.60;6.43;;;7.10;99.90;;;;;;5088292;27;20205;-44
2021/12/18 08:29:43;;;;;;;8.30;6.10;;;7.00;99.90;;;;;;5093131;27;20216;-48
2021/12/18 08:32:10;;;;;;;11.20;7.60;;;7.10;99.90;;;;;;5094448;27;20210;-45
2021/12/18 08:34:38;;;;;;;11.57;7.23;;;7.10;99.90;;;;;;5089420;27;20665;-51
2021/12/18 08:37:05;;;;;;;13.93;6.77;;;7.10;99.90;;;;;;5097285;28;20210;-50
2021/12/18 08:39:32;;;;;;;11.43;7.83;;;7.10;99.90;;;;;;5103215;28;20212;-52
2021/12/18 08:42:03;;;;;;;10.53;7.33;;;7.10;99.90;;;;;;5086284;27;20216;-48
2021/12/18 08:44:30;;;;;;;12.33;7.77;;;7.10;99.90;;;;;;5108598;27;20280;-49
2021/12/18 08:46:56;;;;;;;12.57;7.47;;;7.10;99.90;;;;;;5080342;27;20201;-47
2021/12/18 08:49:24;;;;;;;11.07;8.17;;;7.10;99.90;;;;;;5095390;28;20212;-46
2021/12/18 08:51:52;;;;;;;11.17;7.43;;;7.10;99.90;;;;;;5091626;28;20807;-49
2021/12/18 08:54:18;;;;;;;10.10;7.50;;;7.10;99.90;;;;;;5100295;27;20671;-47
2021/12/18 08:56:45;;;;;;;9.60;6.63;;;7.10;99.90;;;;;;5090229;28;20208;-44
2021/12/18 08:59:12;;;;;;;8.90;6.53;;;7.10;99.90;;;;;;5091657;27;20224;-45
2021/12/18 09:01:38;;;;;;;9.30;6.33;;;7.10;99.90;;;;;;5089876;27;20407;-45
2021/12/18 09:04:05;;;;;;;9.43;6.50;;;7.10;99.90;;;;;;5094537;28;20198;-45
2021/12/18 09:06:32;;;;;;;12.17;8.40;;;7.00;99.90;;;;;;5092045;27;20684;-45
2021/12/18 09:09:00;;;;;;;12.07;8.13;;;7.00;99.90;;;;;;5096029;28;20182;-46
2021/12/18 09:11:27;;;;;;;10.73;7.73;;;7.00;99.90;;;;;;5104994;28;20217;-47
2021/12/18 09:13:54;;;;;;;9.73;7.10;;;7.10;99.90;;;;;;5079811;27;20215;-43
2021/12/18 09:16:20;;;;;;;7.53;5.93;;;7.10;99.90;;;;;;5095830;28;20210;-45
2021/12/18 09:18:47;;;;;;;8.03;5.30;;;7.10;99.90;;;;;;5089523;28;20225;-46
2021/12/18 09:21:14;;;;;;;4.90;3.70;;;7.10;99.90;;;;;;5096796;27;20269;-45
2021/12/18 09:23:41;;;;;;;4.57;3.70;;;7.10;99.90;;;;;;5103181;28;20217;-42
2021/12/18 09:26:09;;;;;;;3.80;2.80;;;7.10;99.90;;;;;;5102535;28;20665;-47
2021/12/18 09:28:36;;;;;;;4.13;2.90;;;7.10;99.90;;;;;;5097155;28;20194;-45
2021/12/18 09:31:03;;;;;;;4.53;2.47;;;7.10;99.90;;;;;;5094645;27;20221;-42
2021/12/18 09:33:29;;;;;;;3.47;2.37;;;7.10;99.90;;;;;;5092550;28;20588;-43
2021/12/18 09:35:56;;;;;;;4.10;2.10;;;7.10;99.90;;;;;;5086932;27;20194;-44
2021/12/18 09:38:22;;;;;;;5.63;2.20;;;7.10;99.90;;;;;;5104903;28;20213;-43
2021/12/18 09:40:49;;;;;;;3.87;2.60;;;7.20;99.90;;;;;;5100360;28;20623;-46
2021/12/18 09:43:17;;;;;;;2.93;2.57;;;7.20;99.90;;;;;;5102914;28;20208;-43
2021/12/18 09:45:46;;;;;;;4.73;2.77;;;7.20;99.90;;;;;;5095026;27;20208;-43
2021/12/18 09:48:12;;;;;;;3.07;2.00;;;7.20;99.90;;;;;;5093050;27;20200;-45
2021/12/18 09:50:42;;;;;;;2.83;1.97;;;7.20;99.90;;;;;;5091387;27;20225;-44
2021/12/18 09:53:09;;;;;;;5.27;2.90;;;7.20;99.90;;;;;;5096047;28;20201;-45
2021/12/18 09:55:35;;;;;;;6.03;2.90;;;7.30;99.90;;;;;;5102612;28;20201;-45
2021/12/18 09:58:02;;;;;;;5.43;3.60;;;7.20;99.90;;;;;;5102186;27;20219;-43
2021/12/18 10:00:30;;;;;;;7.47;4.20;;;7.30;99.90;;;;;;5091415;27;20225;-45
2021/12/18 10:02:57;;;;;;;7.23;4.40;;;7.30;99.90;;;;;;5089285;27;20210;-43
2021/12/18 10:05:27;;;;;;;7.43;4.53;;;7.30;99.90;;;;;;5095269;28;20197;-42
2021/12/18 10:08:12;;;;;;;9.10;4.60;;;7.30;99.90;;;;;;5085970;28;20196;-47
2021/12/18 10:10:58;;;;;;;8.07;5.23;;;7.40;99.90;;;;;;5086676;28;20233;-44
2021/12/18 10:13:25;;;;;;;8.43;5.37;;;7.40;99.90;;;;;;5092362;28;20217;-45
2021/12/18 10:18:45;;;;;;;9.97;5.73;;;7.40;99.90;;;;;;5109604;27;20553;-45
2021/12/18 10:21:14;;;;;;;9.37;5.67;;;7.50;99.90;;;;;;5100263;28;20221;-42
2021/12/18 10:23:42;;;;;;;9.47;5.93;;;7.50;99.90;;;;;;5089179;28;20777;-41
2021/12/18 10:26:28;;;;;;;10.03;5.53;;;7.50;99.90;;;;;;5100112;28;20554;-49
2021/12/18 10:28:54;;;;;;;7.23;4.40;;;7.50;99.90;;;;;;5093437;28;20888;-42
2021/12/18 10:31:38;;;;;;;9.63;3.57;;;7.50;99.90;;;;;;5095129;28;20228;-40
2021/12/18 10:34:15;;;;;;;9.83;4.40;;;7.60;99.90;;;;;;5092869;28;20202;-40
2021/12/18 10:36:42;;;;;;;6.10;3.50;;;7.60;99.90;;;;;;5089453;28;21513;-41
2021/12/18 10:39:18;;;;;;;10.73;3.57;;;7.70;99.90;;;;;;5097082;28;20209;-40
2021/12/18 10:41:44;;;;;;;10.20;3.57;;;7.70;99.90;;;;;;5095106;28;20922;-43
2021/12/18 10:44:13;;;;;;;9.47;3.47;;;7.80;99.90;;;;;;5091455;28;20197;-42
2021/12/18 10:46:42;;;;;;;8.90;3.23;;;7.80;99.90;;;;;;5073419;28;20216;-40
2021/12/18 10:49:12;;;;;;;8.57;3.43;;;7.80;99.90;;;;;;5099286;28;20236;-41
2021/12/18 10:51:41;;;;;;;11.97;3.87;;;7.90;99.90;;;;;;5090738;28;20217;-41
2021/12/18 10:54:13;;;;;;;6.10;2.97;;;7.90;99.90;;;;;;5075574;28;20206;-40
2021/12/18 10:56:42;;;;;;;10.17;3.40;;;7.90;99.90;;;;;;5086110;28;20677;-40
2021/12/18 10:59:21;;;;;;;12.37;3.53;;;8.00;99.90;;;;;;5091333;28;20193;-41
2021/12/18 11:01:51;;;;;;;13.33;3.37;;;8.00;99.90;;;;;;5085936;28;20702;-42
2021/12/18 11:04:23;;;;;;;8.73;3.40;;;8.10;99.90;;;;;;5080155;28;20197;-42
2021/12/18 11:06:51;;;;;;;7.37;3.10;;;8.10;99.90;;;;;;5095816;28;20186;-40
2021/12/18 11:09:27;;;;;;;11.63;3.43;;;8.10;99.90;;;;;;5084502;28;20207;-40
2021/12/18 11:14:40;;;;;;;12.70;3.67;;;8.20;99.90;;;;;;5094176;28;20208;-41
2021/12/18 11:17:10;;;;;;;8.53;3.87;;;8.20;99.90;;;;;;5080026;28;20295;-41
2021/12/18 11:19:39;;;;;;;15.40;4.33;;;8.30;99.90;;;;;;5095328;28;20209;-40
2021/12/18 11:22:09;;;;;;;12.37;4.63;;;8.30;99.90;;;;;;5094627;28;20202;-40
2021/12/18 11:24:39;;;;;;;13.00;4.33;;;8.30;99.90;;;;;;5085135;28;20915;-40
2021/12/18 11:27:08;;;;;;;18.53;5.27;;;8.30;99.90;;;;;;5096085;28;20190;-40
2021/12/18 11:29:46;;;;;;;13.73;4.70;;;8.30;99.90;;;;;;5087556;28;20198;-44
2021/12/18 11:32:15;;;;;;;13.03;5.33;;;8.40;99.90;;;;;;5069703;28;20272;-41
2021/12/18 11:34:42;;;;;;;10.60;5.47;;;8.30;99.90;;;;;;5067636;28;20217;-40
2021/12/18 11:37:12;;;;;;;11.73;5.77;;;8.40;99.90;;;;;;5077850;28;20217;-40
2021/12/18 11:39:40;;;;;;;10.40;5.40;;;8.40;99.90;;;;;;5074448;28;20218;-41
2021/12/18 11:42:08;;;;;;;13.80;5.83;;;8.50;99.90;;;;;;5078561;28;20210;-41
2021/12/18 11:44:37;;;;;;;10.80;4.57;;;8.50;99.90;;;;;;5076520;28;20904;-41
2021/12/18 11:47:24;;;;;;;10.13;4.10;;;8.50;99.90;;;;;;5073251;28;20206;-40
2021/12/18 11:49:52;;;;;;;9.53;3.87;;;8.50;99.90;;;;;;5066476;28;20241;-41
2021/12/18 11:52:20;;;;;;;11.63;5.03;;;8.50;99.90;;;;;;5069269;28;20194;-46
2021/12/18 11:54:50;;;;;;;10.73;4.03;;;8.60;99.90;;;;;;5072475;28;20199;-42
2021/12/18 11:57:43;;;;;;;12.60;3.83;;;8.60;99.90;;;;;;5071814;28;20233;-44
2021/12/18 12:00:47;;;;;;;15.00;4.07;;;8.60;99.90;;;;;;5076279;28;20214;-42
2021/12/18 12:03:26;;;;;;;18.33;4.20;;;8.70;99.90;;;;;;5076644;28;20204;-42
2021/12/18 12:05:54;;;;;;;10.60;4.40;;;8.70;99.90;;;;;;5066164;28;20248;-42
2021/12/18 12:08:26;;;;;;;14.43;3.77;;;8.70;99.90;;;;;;5083535;28;20198;-41
2021/12/18 12:11:21;;;;;;;9.67;3.93;;;8.70;99.90;;;;;;5069839;28;20246;-41
2021/12/18 12:13:56;;;;;;;11.13;3.33;;;8.80;99.90;;;;;;5061061;28;20197;-42
2021/12/18 12:16:55;;;;;;;11.47;3.97;;;8.80;99.90;;;;;;5070449;28;20765;-41
2021/12/18 12:19:24;;;;;;;9.07;3.07;;;8.80;99.90;;;;;;5073012;28;20212;-41
2021/12/18 12:21:53;;;;;;;14.03;3.83;;;8.90;99.90;;;;;;5069023;28;20222;-41
2021/12/18 12:24:23;;;;;;;13.50;3.67;;;8.90;99.90;;;;;;5078435;28;20662;-43
2021/12/18 12:26:50;;;;;;;12.00;3.67;;;8.90;99.90;;;;;;5066793;28;20209;-42
2021/12/18 12:29:19;;;;;;;13.73;4.13;;;8.90;99.90;;;;;;5079311;28;20194;-41
2021/12/18 12:31:55;;;;;;;14.03;3.47;;;8.90;99.90;;;;;;5070738;28;20289;-42
2021/12/18 12:34:23;;;;;;;9.73;3.23;;;9.00;99.90;;;;;;5065967;28;20203;-41
2021/12/18 12:36:53;;;;;;;11.27;3.20;;;9.00;99.90;;;;;;5051991;28;20240;-41
2021/12/18 12:39:21;;;;;;;9.93;3.40;;;9.00;99.90;;;;;;5065473;28;20682;-42
2021/12/18 12:41:51;;;;;;;6.63;2.80;;;9.10;99.90;;;;;;5069105;28;20587;-44
2021/12/18 12:44:48;;;;;;;8.37;3.23;;;9.10;99.90;;;;;;5078675;28;20194;-44
2021/12/18 12:47:17;;;;;;;8.33;3.10;;;9.10;99.90;;;;;;5081944;28;20217;-41
2021/12/18 12:49:45;;;;;;;6.97;2.70;;;9.10;99.90;;;;;;5071958;28;20573;-42
2021/12/18 12:52:13;;;;;;;8.37;2.63;;;9.10;99.90;;;;;;5068619;28;20217;-43
2021/12/18 12:54:53;;;;;;;9.17;3.20;;;9.20;99.90;;;;;;5082889;28;20887;-45
2021/12/18 12:57:50;;;;;;;12.47;3.13;;;9.20;99.90;;;;;;5064496;28;20201;-43
2021/12/18 13:00:50;;;;;;;13.77;3.13;;;9.20;99.90;;;;;;5078743;28;20221;-41
2021/12/18 13:03:36;;;;;;;9.87;3.40;;;9.20;99.90;;;;;;5076103;28;20276;-41
2021/12/18 13:06:13;;;;;;;9.67;3.47;;;9.30;99.90;;;;;;5063492;28;20204;-43
2021/12/18 13:08:42;;;;;;;13.53;3.23;;;9.30;99.90;;;;;;5065867;28;20738;-41
2021/12/18 13:11:20;;;;;;;13.60;3.77;;;9.30;99.90;;;;;;5069736;28;20233;-41
2021/12/18 13:13:47;;;;;;;12.40;3.53;;;9.30;99.90;;;;;;5064169;28;20203;-42
2021/12/18 13:16:16;;;;;;;11.03;3.30;;;9.30;99.90;;;;;;5073280;28;20194;-42
2021/12/18 13:18:45;;;;;;;12.47;3.80;;;9.30;99.90;;;;;;5076561;28;20689;-44
2021/12/18 13:21:14;;;;;;;14.43;3.30;;;9.30;99.90;;;;;;5068588;28;20218;-41
2021/12/18 13:23:53;;;;;;;11.47;3.70;;;9.30;99.90;;;;;;5070255;28;20213;-42
2021/12/18 13:26:27;;;;;;;16.97;4.00;;;9.30;99.90;;;;;;5071781;28;20213;-42
2021/12/18 13:28:56;;;;;;;15.90;3.67;;;9.30;99.90;;;;;;5065162;28;20565;-44
2021/12/18 13:31:26;;;;;;;11.07;3.67;;;9.30;99.90;;;;;;5081304;28;20224;-42
2021/12/18 13:33:58;;;;;;;12.53;4.13;;;9.30;99.90;;;;;;5081059;28;20198;-41
2021/12/18 13:36:37;;;;;;;14.73;4.17;;;9.30;99.90;;;;;;5076592;28;20198;-40
2021/12/18 13:39:07;;;;;;;15.57;3.80;;;9.30;99.90;;;;;;5068026;28;20217;-40
2021/12/18 13:41:35;;;;;;;15.77;3.67;;;9.30;99.90;;;;;;5076592;28;20710;-38